sensor_id;sensor_type;location;lat;lon;timestamp;P1;durP1;ratioP1;P2;durP2;ratioP2
44885;SDS011;36669;51.428;21.162;2023-12-20T00:00:27;7.80;;;3.47;;
44885;SDS011;36669;51.428;21.162;2023-12-20T00:02:54;6.90;;;3.60;;
44885;SDS011;36669;51.428;21.162;2023-12-20T00:05:20;7.32;;;3.08;;
44885;SDS011;36669;51.428;21.162;2023-12-20T00:07:47;4.55;;;2.83;;
44885;SDS011;36669;51.428;21.162;2023-12-20T00:10:14;6.88;;;3.83;;
44885;SDS011;36669;51.428;21.162;2023-12-20T00:12:41;9.35;;;5.28;;
44885;SDS011;36669;51.428;21.162;2023-12-20T00:15:10;7.20;;;3.38;;
44885;SDS011;36669;51.428;21.162;2023-12-20T00:17:36;12.48;;;5.70;;
44885;SDS011;36669;51.428;21.162;2023-12-20T00:20:02;6.80;;;3.15;;
44885;SDS011;36669;51.428;21.162;2023-12-20T00:22:29;10.60;;;4.68;;
44885;SDS011;36669;51.428;21.162;2023-12-20T00:24:55;6.40;;;3.47;;
44885;SDS011;36669;51.428;21.162;2023-12-20T00:27:21;6.28;;;3.15;;
44885;SDS011;36669;51.428;21.162;2023-12-20T00:29:48;10.10;;;4.47;;
44885;SDS011;36669;51.428;21.162;2023-12-20T00:32:16;10.40;;;5.32;;
44885;SDS011;36669;51.428;21.162;2023-12-20T00:34:43;11.23;;;6.03;;
44885;SDS011;36669;51.428;21.162;2023-12-20T00:37:10;11.30;;;6.15;;
44885;SDS011;36669;51.428;21.162;2023-12-20T00:39:37;5.75;;;3.40;;
44885;SDS011;36669;51.428;21.162;2023-12-20T00:42:04;9.75;;;4.97;;
44885;SDS011;36669;51.428;21.162;2023-12-20T00:44:33;7.03;;;3.50;;
44885;SDS011;36669;51.428;21.162;2023-12-20T00:47:01;10.10;;;4.03;;
44885;SDS011;36669;51.428;21.162;2023-12-20T00:49:26;9.40;;;5.15;;
44885;SDS011;36669;51.428;21.162;2023-12-20T00:51:53;15.75;;;7.20;;
44885;SDS011;36669;51.428;21.162;2023-12-20T00:54:19;9.00;;;4.25;;
44885;SDS011;36669;51.428;21.162;2023-12-20T00:56:45;12.68;;;6.70;;
44885;SDS011;36669;51.428;21.162;2023-12-20T00:59:13;4.25;;;2.28;;
44885;SDS011;36669;51.428;21.162;2023-12-20T01:01:40;8.27;;;4.78;;
44885;SDS011;36669;51.428;21.162;2023-12-20T01:04:08;9.65;;;3.58;;
44885;SDS011;36669;51.428;21.162;2023-12-20T01:06:35;9.70;;;4.38;;
44885;SDS011;36669;51.428;21.162;2023-12-20T01:09:03;7.18;;;3.70;;
44885;SDS011;36669;51.428;21.162;2023-12-20T01:11:32;10.85;;;4.70;;
44885;SDS011;36669;51.428;21.162;2023-12-20T01:13:59;6.95;;;3.88;;
44885;SDS011;36669;51.428;21.162;2023-12-20T01:16:25;5.32;;;3.00;;
44885;SDS011;36669;51.428;21.162;2023-12-20T01:18:51;7.45;;;3.15;;
44885;SDS011;36669;51.428;21.162;2023-12-20T01:21:17;7.55;;;3.53;;
44885;SDS011;36669;51.428;21.162;2023-12-20T01:23:44;11.07;;;4.80;;
44885;SDS011;36669;51.428;21.162;2023-12-20T01:26:12;9.88;;;4.63;;
44885;SDS011;36669;51.428;21.162;2023-12-20T01:28:50;7.10;;;4.38;;
44885;SDS011;36669;51.428;21.162;2023-12-20T01:31:18;7.65;;;4.22;;
44885;SDS011;36669;51.428;21.162;2023-12-20T01:33:44;10.10;;;3.60;;
44885;SDS011;36669;51.428;21.162;2023-12-20T01:36:11;10.27;;;5.47;;
44885;SDS011;36669;51.428;21.162;2023-12-20T01:38:38;6.35;;;3.72;;
44885;SDS011;36669;51.428;21.162;2023-12-20T01:41:05;9.00;;;3.83;;
44885;SDS011;36669;51.428;21.162;2023-12-20T01:43:33;9.77;;;4.57;;
44885;SDS011;36669;51.428;21.162;2023-12-20T01:46:02;9.23;;;4.13;;
44885;SDS011;36669;51.428;21.162;2023-12-20T01:48:29;11.55;;;7.15;;
44885;SDS011;36669;51.428;21.162;2023-12-20T01:50:58;10.27;;;3.63;;
44885;SDS011;36669;51.428;21.162;2023-12-20T01:53:28;8.73;;;5.50;;
44885;SDS011;36669;51.428;21.162;2023-12-20T01:56:06;11.48;;;6.45;;
44885;SDS011;36669;51.428;21.162;2023-12-20T01:58:34;10.00;;;4.07;;
44885;SDS011;36669;51.428;21.162;2023-12-20T02:01:05;8.40;;;4.78;;
44885;SDS011;36669;51.428;21.162;2023-12-20T02:03:32;12.02;;;5.80;;
44885;SDS011;36669;51.428;21.162;2023-12-20T02:05:59;6.95;;;4.40;;
44885;SDS011;36669;51.428;21.162;2023-12-20T02:08:27;10.45;;;4.80;;
44885;SDS011;36669;51.428;21.162;2023-12-20T02:10:55;15.05;;;7.88;;
44885;SDS011;36669;51.428;21.162;2023-12-20T02:13:21;6.22;;;3.38;;
44885;SDS011;36669;51.428;21.162;2023-12-20T02:15:48;7.78;;;3.25;;
44885;SDS011;36669;51.428;21.162;2023-12-20T02:18:15;9.38;;;5.68;;
44885;SDS011;36669;51.428;21.162;2023-12-20T02:20:43;3.88;;;2.63;;
44885;SDS011;36669;51.428;21.162;2023-12-20T02:23:10;10.85;;;6.00;;
44885;SDS011;36669;51.428;21.162;2023-12-20T02:25:37;8.27;;;5.45;;
44885;SDS011;36669;51.428;21.162;2023-12-20T02:28:04;6.95;;;4.35;;
44885;SDS011;36669;51.428;21.162;2023-12-20T02:30:35;6.88;;;4.22;;
44885;SDS011;36669;51.428;21.162;2023-12-20T02:33:02;2.63;;;1.92;;
44885;SDS011;36669;51.428;21.162;2023-12-20T02:35:33;8.40;;;3.83;;
44885;SDS011;36669;51.428;21.162;2023-12-20T02:38:00;13.73;;;7.85;;
44885;SDS011;36669;51.428;21.162;2023-12-20T02:40:26;13.18;;;8.48;;
44885;SDS011;36669;51.428;21.162;2023-12-20T02:42:52;12.13;;;6.32;;
44885;SDS011;36669;51.428;21.162;2023-12-20T02:45:18;6.35;;;3.38;;
44885;SDS011;36669;51.428;21.162;2023-12-20T02:47:45;7.75;;;3.90;;
44885;SDS011;36669;51.428;21.162;2023-12-20T02:50:13;3.22;;;2.10;;
44885;SDS011;36669;51.428;21.162;2023-12-20T02:52:40;9.48;;;3.33;;
44885;SDS011;36669;51.428;21.162;2023-12-20T02:55:10;13.85;;;7.07;;
44885;SDS011;36669;51.428;21.162;2023-12-20T02:57:37;5.38;;;2.95;;
44885;SDS011;36669;51.428;21.162;2023-12-20T03:00:08;12.00;;;5.50;;
44885;SDS011;36669;51.428;21.162;2023-12-20T03:02:36;9.52;;;4.65;;
44885;SDS011;36669;51.428;21.162;2023-12-20T03:05:03;6.65;;;4.32;;
44885;SDS011;36669;51.428;21.162;2023-12-20T03:07:32;9.27;;;4.40;;
44885;SDS011;36669;51.428;21.162;2023-12-20T03:10:03;4.22;;;2.83;;
44885;SDS011;36669;51.428;21.162;2023-12-20T03:12:31;7.18;;;3.72;;
44885;SDS011;36669;51.428;21.162;2023-12-20T03:15:00;6.28;;;2.90;;
44885;SDS011;36669;51.428;21.162;2023-12-20T03:17:25;4.50;;;2.85;;
44885;SDS011;36669;51.428;21.162;2023-12-20T03:19:51;7.38;;;4.30;;
44885;SDS011;36669;51.428;21.162;2023-12-20T03:22:18;7.75;;;3.17;;
44885;SDS011;36669;51.428;21.162;2023-12-20T03:24:45;5.78;;;2.85;;
44885;SDS011;36669;51.428;21.162;2023-12-20T03:27:12;6.35;;;2.88;;
44885;SDS011;36669;51.428;21.162;2023-12-20T03:29:39;11.48;;;4.93;;
44885;SDS011;36669;51.428;21.162;2023-12-20T03:32:07;8.70;;;3.30;;
44885;SDS011;36669;51.428;21.162;2023-12-20T03:34:33;4.72;;;2.13;;
44885;SDS011;36669;51.428;21.162;2023-12-20T03:37:00;6.88;;;3.83;;
44885;SDS011;36669;51.428;21.162;2023-12-20T03:39:28;12.85;;;7.65;;
44885;SDS011;36669;51.428;21.162;2023-12-20T03:41:54;8.88;;;5.15;;
44885;SDS011;36669;51.428;21.162;2023-12-20T03:44:23;9.95;;;5.38;;
44885;SDS011;36669;51.428;21.162;2023-12-20T03:46:53;8.73;;;5.10;;
44885;SDS011;36669;51.428;21.162;2023-12-20T03:49:20;7.20;;;3.22;;
44885;SDS011;36669;51.428;21.162;2023-12-20T03:51:49;10.40;;;4.88;;
44885;SDS011;36669;51.428;21.162;2023-12-20T03:54:14;5.50;;;3.70;;
44885;SDS011;36669;51.428;21.162;2023-12-20T03:56:41;7.68;;;4.78;;
44885;SDS011;36669;51.428;21.162;2023-12-20T03:59:08;9.57;;;5.45;;
44885;SDS011;36669;51.428;21.162;2023-12-20T04:01:35;13.05;;;4.43;;
44885;SDS011;36669;51.428;21.162;2023-12-20T04:04:00;12.75;;;7.28;;
44885;SDS011;36669;51.428;21.162;2023-12-20T04:06:29;12.23;;;8.20;;
44885;SDS011;36669;51.428;21.162;2023-12-20T04:08:56;8.43;;;4.57;;
44885;SDS011;36669;51.428;21.162;2023-12-20T04:11:22;7.60;;;4.28;;
44885;SDS011;36669;51.428;21.162;2023-12-20T04:13:49;7.05;;;3.17;;
44885;SDS011;36669;51.428;21.162;2023-12-20T04:16:16;11.55;;;5.47;;
44885;SDS011;36669;51.428;21.162;2023-12-20T04:18:44;7.47;;;4.25;;
44885;SDS011;36669;51.428;21.162;2023-12-20T04:21:11;7.00;;;3.70;;
44885;SDS011;36669;51.428;21.162;2023-12-20T04:23:39;9.82;;;6.22;;
44885;SDS011;36669;51.428;21.162;2023-12-20T04:26:05;5.05;;;3.25;;
44885;SDS011;36669;51.428;21.162;2023-12-20T04:28:31;6.47;;;2.92;;
44885;SDS011;36669;51.428;21.162;2023-12-20T04:30:58;9.25;;;6.68;;
44885;SDS011;36669;51.428;21.162;2023-12-20T04:33:25;6.60;;;4.43;;
44885;SDS011;36669;51.428;21.162;2023-12-20T04:35:52;3.47;;;2.40;;
44885;SDS011;36669;51.428;21.162;2023-12-20T04:38:20;5.82;;;3.50;;
44885;SDS011;36669;51.428;21.162;2023-12-20T04:40:48;10.73;;;7.25;;
44885;SDS011;36669;51.428;21.162;2023-12-20T04:43:16;7.13;;;4.43;;
44885;SDS011;36669;51.428;21.162;2023-12-20T04:45:44;9.90;;;5.78;;
44885;SDS011;36669;51.428;21.162;2023-12-20T04:48:12;4.30;;;2.22;;
44885;SDS011;36669;51.428;21.162;2023-12-20T04:50:39;6.32;;;3.70;;
44885;SDS011;36669;51.428;21.162;2023-12-20T04:53:05;10.35;;;6.63;;
44885;SDS011;36669;51.428;21.162;2023-12-20T04:55:34;5.93;;;3.65;;
44885;SDS011;36669;51.428;21.162;2023-12-20T04:58:01;9.30;;;5.03;;
44885;SDS011;36669;51.428;21.162;2023-12-20T05:00:28;8.32;;;3.63;;
44885;SDS011;36669;51.428;21.162;2023-12-20T05:02:55;6.35;;;3.50;;
44885;SDS011;36669;51.428;21.162;2023-12-20T05:05:21;5.47;;;4.03;;
44885;SDS011;36669;51.428;21.162;2023-12-20T05:07:49;6.70;;;3.38;;
44885;SDS011;36669;51.428;21.162;2023-12-20T05:10:16;5.72;;;2.38;;
44885;SDS011;36669;51.428;21.162;2023-12-20T05:12:43;8.60;;;2.42;;
44885;SDS011;36669;51.428;21.162;2023-12-20T05:15:10;6.50;;;4.05;;
44885;SDS011;36669;51.428;21.162;2023-12-20T05:17:37;5.18;;;3.25;;
44885;SDS011;36669;51.428;21.162;2023-12-20T05:20:05;8.10;;;3.92;;
44885;SDS011;36669;51.428;21.162;2023-12-20T05:22:38;5.38;;;2.35;;
44885;SDS011;36669;51.428;21.162;2023-12-20T05:25:05;3.60;;;1.98;;
44885;SDS011;36669;51.428;21.162;2023-12-20T05:27:32;4.65;;;2.95;;
44885;SDS011;36669;51.428;21.162;2023-12-20T05:29:59;1.90;;;1.42;;
44885;SDS011;36669;51.428;21.162;2023-12-20T05:32:25;3.53;;;1.58;;
44885;SDS011;36669;51.428;21.162;2023-12-20T05:34:52;1.00;;;0.85;;
44885;SDS011;36669;51.428;21.162;2023-12-20T05:37:19;2.28;;;1.35;;
44885;SDS011;36669;51.428;21.162;2023-12-20T05:39:47;5.28;;;2.00;;
44885;SDS011;36669;51.428;21.162;2023-12-20T05:42:12;10.07;;;5.13;;
44885;SDS011;36669;51.428;21.162;2023-12-20T05:44:39;3.20;;;1.92;;
44885;SDS011;36669;51.428;21.162;2023-12-20T05:47:07;6.68;;;3.35;;
44885;SDS011;36669;51.428;21.162;2023-12-20T05:49:37;3.42;;;2.50;;
44885;SDS011;36669;51.428;21.162;2023-12-20T05:52:03;6.15;;;3.97;;
44885;SDS011;36669;51.428;21.162;2023-12-20T05:54:31;7.47;;;4.70;;
44885;SDS011;36669;51.428;21.162;2023-12-20T05:56:59;6.22;;;3.28;;
44885;SDS011;36669;51.428;21.162;2023-12-20T05:59:28;9.40;;;5.05;;
44885;SDS011;36669;51.428;21.162;2023-12-20T06:01:55;4.68;;;2.88;;
44885;SDS011;36669;51.428;21.162;2023-12-20T06:04:21;11.13;;;2.33;;
44885;SDS011;36669;51.428;21.162;2023-12-20T06:06:49;6.53;;;5.72;;
44885;SDS011;36669;51.428;21.162;2023-12-20T06:09:15;2.72;;;2.10;;
44885;SDS011;36669;51.428;21.162;2023-12-20T06:11:44;6.82;;;2.30;;
44885;SDS011;36669;51.428;21.162;2023-12-20T06:14:12;2.78;;;2.13;;
44885;SDS011;36669;51.428;21.162;2023-12-20T06:16:39;4.00;;;2.10;;
44885;SDS011;36669;51.428;21.162;2023-12-20T06:19:11;4.13;;;2.47;;
44885;SDS011;36669;51.428;21.162;2023-12-20T06:21:38;8.80;;;3.50;;
44885;SDS011;36669;51.428;21.162;2023-12-20T06:24:03;7.07;;;4.47;;
44885;SDS011;36669;51.428;21.162;2023-12-20T06:26:30;7.57;;;4.03;;
44885;SDS011;36669;51.428;21.162;2023-12-20T06:29:00;8.13;;;3.58;;
44885;SDS011;36669;51.428;21.162;2023-12-20T06:31:29;5.00;;;2.72;;
44885;SDS011;36669;51.428;21.162;2023-12-20T06:33:59;14.02;;;4.03;;
44885;SDS011;36669;51.428;21.162;2023-12-20T06:36:27;4.85;;;2.92;;
44885;SDS011;36669;51.428;21.162;2023-12-20T06:38:55;7.03;;;3.42;;
44885;SDS011;36669;51.428;21.162;2023-12-20T06:41:22;2.38;;;2.00;;
44885;SDS011;36669;51.428;21.162;2023-12-20T06:43:51;2.92;;;2.15;;
44885;SDS011;36669;51.428;21.162;2023-12-20T06:46:19;2.80;;;2.38;;
44885;SDS011;36669;51.428;21.162;2023-12-20T06:48:46;3.88;;;2.33;;
44885;SDS011;36669;51.428;21.162;2023-12-20T06:51:14;6.93;;;4.43;;
44885;SDS011;36669;51.428;21.162;2023-12-20T06:53:42;6.50;;;2.25;;
44885;SDS011;36669;51.428;21.162;2023-12-20T06:56:10;2.95;;;2.28;;
44885;SDS011;36669;51.428;21.162;2023-12-20T06:58:41;8.73;;;5.25;;
44885;SDS011;36669;51.428;21.162;2023-12-20T07:01:12;2.55;;;1.70;;
44885;SDS011;36669;51.428;21.162;2023-12-20T07:03:40;5.70;;;2.50;;
44885;SDS011;36669;51.428;21.162;2023-12-20T07:06:09;5.35;;;2.95;;
44885;SDS011;36669;51.428;21.162;2023-12-20T07:08:35;5.07;;;2.95;;
44885;SDS011;36669;51.428;21.162;2023-12-20T07:11:03;5.45;;;2.05;;
44885;SDS011;36669;51.428;21.162;2023-12-20T07:13:30;3.38;;;1.73;;
44885;SDS011;36669;51.428;21.162;2023-12-20T07:15:57;7.88;;;1.60;;
44885;SDS011;36669;51.428;21.162;2023-12-20T07:18:24;4.00;;;2.45;;
44885;SDS011;36669;51.428;21.162;2023-12-20T07:20:50;2.25;;;1.50;;
44885;SDS011;36669;51.428;21.162;2023-12-20T07:23:17;3.00;;;1.85;;
44885;SDS011;36669;51.428;21.162;2023-12-20T07:25:47;3.65;;;1.85;;
44885;SDS011;36669;51.428;21.162;2023-12-20T07:28:12;6.38;;;3.13;;
44885;SDS011;36669;51.428;21.162;2023-12-20T07:30:39;10.57;;;4.10;;
44885;SDS011;36669;51.428;21.162;2023-12-20T07:33:05;6.47;;;2.58;;
44885;SDS011;36669;51.428;21.162;2023-12-20T07:35:35;8.32;;;3.30;;
44885;SDS011;36669;51.428;21.162;2023-12-20T07:38:02;10.00;;;5.32;;
44885;SDS011;36669;51.428;21.162;2023-12-20T07:40:31;4.20;;;3.22;;
44885;SDS011;36669;51.428;21.162;2023-12-20T07:42:58;9.48;;;5.30;;
44885;SDS011;36669;51.428;21.162;2023-12-20T07:45:27;5.82;;;3.13;;
44885;SDS011;36669;51.428;21.162;2023-12-20T07:47:55;5.22;;;3.05;;
44885;SDS011;36669;51.428;21.162;2023-12-20T07:50:22;6.65;;;4.70;;
44885;SDS011;36669;51.428;21.162;2023-12-20T07:52:49;1.92;;;1.55;;
44885;SDS011;36669;51.428;21.162;2023-12-20T07:55:16;10.75;;;2.65;;
44885;SDS011;36669;51.428;21.162;2023-12-20T07:57:43;4.70;;;2.58;;
44885;SDS011;36669;51.428;21.162;2023-12-20T08:00:10;2.42;;;1.60;;
44885;SDS011;36669;51.428;21.162;2023-12-20T08:02:36;8.80;;;4.35;;
44885;SDS011;36669;51.428;21.162;2023-12-20T08:05:04;5.40;;;2.95;;
44885;SDS011;36669;51.428;21.162;2023-12-20T08:07:33;2.75;;;1.90;;
44885;SDS011;36669;51.428;21.162;2023-12-20T08:09:59;3.53;;;1.95;;
44885;SDS011;36669;51.428;21.162;2023-12-20T08:12:27;4.18;;;2.05;;
44885;SDS011;36669;51.428;21.162;2023-12-20T08:14:54;3.10;;;1.15;;
44885;SDS011;36669;51.428;21.162;2023-12-20T08:17:21;3.20;;;2.45;;
44885;SDS011;36669;51.428;21.162;2023-12-20T08:19:50;2.17;;;1.42;;
44885;SDS011;36669;51.428;21.162;2023-12-20T08:22:20;3.58;;;1.42;;
44885;SDS011;36669;51.428;21.162;2023-12-20T08:24:47;3.63;;;2.15;;
44885;SDS011;36669;51.428;21.162;2023-12-20T08:27:15;0.75;;;0.75;;
44885;SDS011;36669;51.428;21.162;2023-12-20T08:29:43;3.60;;;1.73;;
44885;SDS011;36669;51.428;21.162;2023-12-20T08:32:12;2.33;;;1.17;;
44885;SDS011;36669;51.428;21.162;2023-12-20T08:34:39;2.17;;;1.20;;
44885;SDS011;36669;51.428;21.162;2023-12-20T08:37:06;3.13;;;1.17;;
44885;SDS011;36669;51.428;21.162;2023-12-20T08:39:34;1.23;;;0.88;;
44885;SDS011;36669;51.428;21.162;2023-12-20T08:42:02;1.48;;;0.90;;
44885;SDS011;36669;51.428;21.162;2023-12-20T08:44:30;1.48;;;0.93;;
44885;SDS011;36669;51.428;21.162;2023-12-20T08:46:57;1.42;;;1.10;;
44885;SDS011;36669;51.428;21.162;2023-12-20T08:49:24;1.23;;;0.93;;
44885;SDS011;36669;51.428;21.162;2023-12-20T08:51:56;3.60;;;1.80;;
44885;SDS011;36669;51.428;21.162;2023-12-20T08:54:22;2.95;;;1.40;;
44885;SDS011;36669;51.428;21.162;2023-12-20T08:56:48;2.30;;;1.30;;
44885;SDS011;36669;51.428;21.162;2023-12-20T08:59:16;2.38;;;1.45;;
44885;SDS011;36669;51.428;21.162;2023-12-20T09:01:45;1.50;;;1.23;;
44885;SDS011;36669;51.428;21.162;2023-12-20T09:04:15;3.28;;;1.15;;
44885;SDS011;36669;51.428;21.162;2023-12-20T09:06:42;1.10;;;1.00;;
44885;SDS011;36669;51.428;21.162;2023-12-20T09:09:10;1.02;;;0.75;;
44885;SDS011;36669;51.428;21.162;2023-12-20T09:11:40;0.90;;;0.80;;
44885;SDS011;36669;51.428;21.162;2023-12-20T09:14:08;1.85;;;1.30;;
44885;SDS011;36669;51.428;21.162;2023-12-20T09:16:35;4.45;;;2.05;;
44885;SDS011;36669;51.428;21.162;2023-12-20T09:19:03;0.68;;;0.47;;
44885;SDS011;36669;51.428;21.162;2023-12-20T09:21:29;2.25;;;1.48;;
44885;SDS011;36669;51.428;21.162;2023-12-20T09:23:57;0.75;;;0.75;;
44885;SDS011;36669;51.428;21.162;2023-12-20T09:26:27;3.80;;;1.42;;
44885;SDS011;36669;51.428;21.162;2023-12-20T09:28:54;2.97;;;1.50;;
44885;SDS011;36669;51.428;21.162;2023-12-20T09:31:19;2.78;;;1.83;;
44885;SDS011;36669;51.428;21.162;2023-12-20T09:33:49;2.83;;;2.15;;
44885;SDS011;36669;51.428;21.162;2023-12-20T09:36:14;5.25;;;1.60;;
44885;SDS011;36669;51.428;21.162;2023-12-20T09:38:42;1.75;;;1.25;;
44885;SDS011;36669;51.428;21.162;2023-12-20T09:41:12;3.40;;;1.58;;
44885;SDS011;36669;51.428;21.162;2023-12-20T09:43:40;5.68;;;1.65;;
44885;SDS011;36669;51.428;21.162;2023-12-20T09:46:08;1.23;;;1.10;;
44885;SDS011;36669;51.428;21.162;2023-12-20T09:48:51;6.13;;;1.60;;
44885;SDS011;36669;51.428;21.162;2023-12-20T09:51:18;3.38;;;1.30;;
44885;SDS011;36669;51.428;21.162;2023-12-20T09:53:47;2.03;;;1.13;;
44885;SDS011;36669;51.428;21.162;2023-12-20T09:56:15;0.80;;;0.60;;
44885;SDS011;36669;51.428;21.162;2023-12-20T09:58:43;3.30;;;0.77;;
44885;SDS011;36669;51.428;21.162;2023-12-20T10:01:10;3.47;;;1.77;;
44885;SDS011;36669;51.428;21.162;2023-12-20T10:03:38;2.33;;;1.48;;
44885;SDS011;36669;51.428;21.162;2023-12-20T10:06:07;4.22;;;2.25;;
44885;SDS011;36669;51.428;21.162;2023-12-20T10:08:34;3.40;;;2.08;;
44885;SDS011;36669;51.428;21.162;2023-12-20T10:11:01;3.75;;;1.00;;
44885;SDS011;36669;51.428;21.162;2023-12-20T10:13:30;3.60;;;2.25;;
44885;SDS011;36669;51.428;21.162;2023-12-20T10:15:59;1.10;;;0.85;;
44885;SDS011;36669;51.428;21.162;2023-12-20T10:18:28;1.73;;;1.17;;
44885;SDS011;36669;51.428;21.162;2023-12-20T10:20:57;1.20;;;0.60;;
44885;SDS011;36669;51.428;21.162;2023-12-20T10:23:25;1.88;;;1.10;;
44885;SDS011;36669;51.428;21.162;2023-12-20T10:25:59;0.45;;;0.45;;
44885;SDS011;36669;51.428;21.162;2023-12-20T10:30:54;2.75;;;0.80;;
44885;SDS011;36669;51.428;21.162;2023-12-20T10:33:26;0.65;;;0.38;;
44885;SDS011;36669;51.428;21.162;2023-12-20T10:35:55;0.73;;;0.52;;
44885;SDS011;36669;51.428;21.162;2023-12-20T10:38:21;1.50;;;0.90;;
44885;SDS011;36669;51.428;21.162;2023-12-20T10:40:47;0.70;;;0.70;;
44885;SDS011;36669;51.428;21.162;2023-12-20T10:43:13;2.30;;;0.82;;
44885;SDS011;36669;51.428;21.162;2023-12-20T10:45:45;1.20;;;0.75;;
44885;SDS011;36669;51.428;21.162;2023-12-20T10:48:12;2.00;;;0.65;;
44885;SDS011;36669;51.428;21.162;2023-12-20T10:50:42;2.33;;;1.30;;
44885;SDS011;36669;51.428;21.162;2023-12-20T10:53:09;0.82;;;0.80;;
44885;SDS011;36669;51.428;21.162;2023-12-20T10:55:37;2.13;;;0.80;;
44885;SDS011;36669;51.428;21.162;2023-12-20T10:58:07;2.33;;;1.40;;
44885;SDS011;36669;51.428;21.162;2023-12-20T11:00:45;1.38;;;1.10;;
44885;SDS011;36669;51.428;21.162;2023-12-20T11:03:13;2.13;;;1.20;;
44885;SDS011;36669;51.428;21.162;2023-12-20T11:05:50;1.63;;;1.02;;
44885;SDS011;36669;51.428;21.162;2023-12-20T11:08:50;0.30;;;0.30;;
44885;SDS011;36669;51.428;21.162;2023-12-20T11:14:46;1.58;;;1.10;;
44885;SDS011;36669;51.428;21.162;2023-12-20T11:17:31;1.27;;;1.15;;
44885;SDS011;36669;51.428;21.162;2023-12-20T11:20:05;1.70;;;1.10;;
44885;SDS011;36669;51.428;21.162;2023-12-20T11:22:36;1.70;;;1.02;;
44885;SDS011;36669;51.428;21.162;2023-12-20T11:25:10;5.22;;;1.98;;
44885;SDS011;36669;51.428;21.162;2023-12-20T11:27:42;8.75;;;1.88;;
44885;SDS011;36669;51.428;21.162;2023-12-20T11:30:11;3.90;;;1.60;;
44885;SDS011;36669;51.428;21.162;2023-12-20T11:32:49;1.98;;;1.70;;
44885;SDS011;36669;51.428;21.162;2023-12-20T11:35:19;2.50;;;1.45;;
44885;SDS011;36669;51.428;21.162;2023-12-20T11:37:46;2.70;;;1.13;;
44885;SDS011;36669;51.428;21.162;2023-12-20T11:40:15;4.57;;;2.63;;
44885;SDS011;36669;51.428;21.162;2023-12-20T11:42:51;4.40;;;1.38;;
44885;SDS011;36669;51.428;21.162;2023-12-20T11:45:21;2.15;;;1.30;;
44885;SDS011;36669;51.428;21.162;2023-12-20T11:47:50;4.05;;;0.98;;
44885;SDS011;36669;51.428;21.162;2023-12-20T11:50:19;4.78;;;2.60;;
44885;SDS011;36669;51.428;21.162;2023-12-20T11:52:47;4.63;;;1.42;;
44885;SDS011;36669;51.428;21.162;2023-12-20T11:55:15;2.42;;;1.45;;
44885;SDS011;36669;51.428;21.162;2023-12-20T11:57:44;3.42;;;1.98;;
44885;SDS011;36669;51.428;21.162;2023-12-20T12:00:13;2.08;;;1.15;;
44885;SDS011;36669;51.428;21.162;2023-12-20T12:02:42;5.72;;;1.10;;
44885;SDS011;36669;51.428;21.162;2023-12-20T12:05:21;4.55;;;2.50;;
44885;SDS011;36669;51.428;21.162;2023-12-20T12:07:48;2.35;;;1.25;;
44885;SDS011;36669;51.428;21.162;2023-12-20T12:10:14;2.92;;;1.25;;
44885;SDS011;36669;51.428;21.162;2023-12-20T12:12:40;3.60;;;1.67;;
44885;SDS011;36669;51.428;21.162;2023-12-20T12:15:08;2.85;;;1.58;;
44885;SDS011;36669;51.428;21.162;2023-12-20T12:17:36;2.00;;;1.27;;
44885;SDS011;36669;51.428;21.162;2023-12-20T12:20:05;3.17;;;1.60;;
44885;SDS011;36669;51.428;21.162;2023-12-20T12:22:36;3.70;;;2.10;;
44885;SDS011;36669;51.428;21.162;2023-12-20T12:25:11;2.38;;;1.40;;
44885;SDS011;36669;51.428;21.162;2023-12-20T12:27:39;3.25;;;1.98;;
44885;SDS011;36669;51.428;21.162;2023-12-20T12:30:08;4.03;;;2.10;;
44885;SDS011;36669;51.428;21.162;2023-12-20T12:32:46;4.53;;;1.60;;
44885;SDS011;36669;51.428;21.162;2023-12-20T12:35:14;3.88;;;1.92;;
44885;SDS011;36669;51.428;21.162;2023-12-20T12:37:44;4.03;;;2.65;;
44885;SDS011;36669;51.428;21.162;2023-12-20T12:40:13;3.40;;;1.83;;
44885;SDS011;36669;51.428;21.162;2023-12-20T12:42:44;1.88;;;1.58;;
44885;SDS011;36669;51.428;21.162;2023-12-20T12:45:12;3.47;;;0.98;;
44885;SDS011;36669;51.428;21.162;2023-12-20T12:47:39;5.57;;;1.73;;
44885;SDS011;36669;51.428;21.162;2023-12-20T12:50:07;3.65;;;2.10;;
44885;SDS011;36669;51.428;21.162;2023-12-20T12:52:35;2.55;;;1.50;;
44885;SDS011;36669;51.428;21.162;2023-12-20T12:55:02;1.90;;;1.13;;
44885;SDS011;36669;51.428;21.162;2023-12-20T12:57:31;3.35;;;1.90;;
44885;SDS011;36669;51.428;21.162;2023-12-20T12:59:58;1.95;;;1.17;;
44885;SDS011;36669;51.428;21.162;2023-12-20T13:02:25;5.15;;;2.30;;
44885;SDS011;36669;51.428;21.162;2023-12-20T13:04:54;1.20;;;1.00;;
44885;SDS011;36669;51.428;21.162;2023-12-20T13:07:20;3.55;;;1.25;;
44885;SDS011;36669;51.428;21.162;2023-12-20T13:09:48;4.82;;;1.83;;
44885;SDS011;36669;51.428;21.162;2023-12-20T13:12:15;3.67;;;1.58;;
44885;SDS011;36669;51.428;21.162;2023-12-20T13:14:40;3.90;;;1.83;;
44885;SDS011;36669;51.428;21.162;2023-12-20T13:17:07;6.45;;;1.90;;
44885;SDS011;36669;51.428;21.162;2023-12-20T13:19:34;2.40;;;1.35;;
44885;SDS011;36669;51.428;21.162;2023-12-20T13:22:02;4.63;;;2.45;;
44885;SDS011;36669;51.428;21.162;2023-12-20T13:24:29;3.80;;;2.30;;
44885;SDS011;36669;51.428;21.162;2023-12-20T13:26:55;4.47;;;2.85;;
44885;SDS011;36669;51.428;21.162;2023-12-20T13:29:23;3.90;;;2.33;;
44885;SDS011;36669;51.428;21.162;2023-12-20T13:31:53;5.30;;;2.25;;
44885;SDS011;36669;51.428;21.162;2023-12-20T13:34:20;4.55;;;2.38;;
44885;SDS011;36669;51.428;21.162;2023-12-20T13:36:48;2.58;;;1.65;;
44885;SDS011;36669;51.428;21.162;2023-12-20T13:39:17;2.92;;;1.60;;
44885;SDS011;36669;51.428;21.162;2023-12-20T13:41:45;1.75;;;1.50;;
44885;SDS011;36669;51.428;21.162;2023-12-20T13:44:13;1.42;;;1.23;;
44885;SDS011;36669;51.428;21.162;2023-12-20T13:46:41;5.57;;;2.35;;
44885;SDS011;36669;51.428;21.162;2023-12-20T13:49:12;1.85;;;1.23;;
44885;SDS011;36669;51.428;21.162;2023-12-20T13:51:40;2.78;;;1.90;;
44885;SDS011;36669;51.428;21.162;2023-12-20T13:54:06;2.60;;;2.33;;
44885;SDS011;36669;51.428;21.162;2023-12-20T13:56:34;2.45;;;1.85;;
44885;SDS011;36669;51.428;21.162;2023-12-20T13:59:01;3.00;;;1.55;;
44885;SDS011;36669;51.428;21.162;2023-12-20T14:01:29;2.20;;;1.60;;
44885;SDS011;36669;51.428;21.162;2023-12-20T14:03:55;3.28;;;2.22;;
44885;SDS011;36669;51.428;21.162;2023-12-20T14:06:23;4.35;;;1.90;;
44885;SDS011;36669;51.428;21.162;2023-12-20T14:08:50;2.63;;;1.52;;
44885;SDS011;36669;51.428;21.162;2023-12-20T14:11:16;3.65;;;2.10;;
44885;SDS011;36669;51.428;21.162;2023-12-20T14:13:44;6.57;;;1.52;;
44885;SDS011;36669;51.428;21.162;2023-12-20T14:16:13;6.90;;;1.98;;
44885;SDS011;36669;51.428;21.162;2023-12-20T14:18:39;7.57;;;3.55;;
44885;SDS011;36669;51.428;21.162;2023-12-20T14:21:07;3.05;;;2.00;;
44885;SDS011;36669;51.428;21.162;2023-12-20T14:23:35;3.85;;;1.88;;
44885;SDS011;36669;51.428;21.162;2023-12-20T14:26:00;4.25;;;2.20;;
44885;SDS011;36669;51.428;21.162;2023-12-20T14:28:28;4.95;;;1.85;;
44885;SDS011;36669;51.428;21.162;2023-12-20T14:30:55;5.18;;;2.33;;
44885;SDS011;36669;51.428;21.162;2023-12-20T14:33:22;10.70;;;2.53;;
44885;SDS011;36669;51.428;21.162;2023-12-20T14:35:51;6.68;;;3.40;;
44885;SDS011;36669;51.428;21.162;2023-12-20T14:38:17;2.13;;;1.38;;
44885;SDS011;36669;51.428;21.162;2023-12-20T14:40:44;5.63;;;2.58;;
44885;SDS011;36669;51.428;21.162;2023-12-20T14:43:11;4.38;;;1.95;;